Time;durP1;ratioP1;P1;durP2;ratioP2;P2;SDS_P1;SDS_P2;PMS_P1;PMS_P2;Temp;Humidity;BMP_temperature;BMP_pressure;BME280_temperature;BME280_humidity;BME280_pressure;Samples;Min_cycle;Max_cycle;Signal;HPM_P1;HPM_P2
2022/11/21 00:01:56;;;;;;;;;;;6.10;99.90;;;;;;1974106;73;20102;-83
2022/11/21 00:04:22;;;;;;;;;;;6.10;99.90;;;;;;1973924;73;20138;-81
2022/11/21 00:06:51;;;;;;;;;;;6.10;99.90;;;;;;1973947;73;20187;-84
2022/11/21 00:09:18;;;;;;;;;;;6.10;99.90;;;;;;1973504;73;20132;-82
2022/11/21 00:11:45;;;;;;;;;;;6.10;99.90;;;;;;1973823;73;20114;-82
2022/11/21 00:14:11;;;;;;;;;;;6.00;99.90;;;;;;1973995;73;20161;-83
2022/11/21 00:16:38;;;;;;;;;;;6.00;99.90;;;;;;1974060;73;20210;-83
2022/11/21 00:19:05;;;;;;;;;;;6.10;99.90;;;;;;1974071;73;20140;-83
2022/11/21 00:21:31;;;;;;;;;;;6.10;99.90;;;;;;1973906;73;20196;-83
2022/11/21 00:23:58;;;;;;;;;;;6.10;99.90;;;;;;1974027;73;20357;-84
2022/11/21 00:26:25;;;;;;;;;;;6.20;99.90;;;;;;1973991;73;20098;-84
2022/11/21 00:28:51;;;;;;;;;;;6.20;99.90;;;;;;1947180;73;20365;-84
2022/11/21 00:31:21;;;;;;;;;;;6.20;99.90;;;;;;1973806;73;20160;-85
2022/11/21 00:33:48;;;;;;;;;;;6.10;99.90;;;;;;1973894;73;20156;-84
2022/11/21 00:36:15;;;;;;;;;;;6.10;99.90;;;;;;1973895;73;20379;-86
2022/11/21 00:38:41;;;;;;;;;;;6.10;99.90;;;;;;1973999;73;20257;-85
2022/11/21 00:41:08;;;;;;;;;;;6.10;99.90;;;;;;1973947;73;20350;-85
2022/11/21 00:43:35;;;;;;;;;;;6.10;99.90;;;;;;1973924;73;20098;-86
2022/11/21 00:46:01;;;;;;;;;;;6.00;99.90;;;;;;1973968;73;20555;-85
2022/11/21 00:48:28;;;;;;;;;;;6.00;99.90;;;;;;1974074;73;20138;-84
2022/11/21 00:50:55;;;;;;;;;;;6.10;99.90;;;;;;1973970;73;20133;-85
2022/11/21 00:53:22;;;;;;;;;;;6.00;99.90;;;;;;1974117;73;20149;-83
2022/11/21 00:55:48;;;;;;;;;;;5.90;99.90;;;;;;1973978;73;20142;-85
2022/11/21 00:58:15;;;;;;;;;;;5.90;99.90;;;;;;1973927;73;20110;-85
2022/11/21 01:00:43;;;;;;;;;;;5.90;99.90;;;;;;1974095;73;20157;-84
2022/11/21 01:03:11;;;;;;;;;;;5.90;99.90;;;;;;1974031;73;20145;-84
2022/11/21 01:05:37;;;;;;;;;;;5.80;99.90;;;;;;1973952;73;20113;-83
2022/11/21 01:08:04;;;;;;;;;;;5.80;99.90;;;;;;1973859;73;20114;-83
2022/11/21 01:10:31;;;;;;;;;;;5.80;99.90;;;;;;1973783;73;20118;-83
2022/11/21 01:12:57;;;;;;;;;;;5.80;99.90;;;;;;1973886;73;20197;-83
2022/11/21 01:15:24;;;;;;;;;;;5.80;99.90;;;;;;1973933;73;20163;-84
2022/11/21 01:17:51;;;;;;;;;;;5.70;99.90;;;;;;1973938;73;20139;-83
2022/11/21 01:20:18;;;;;;;;;;;5.70;99.90;;;;;;1974023;73;20146;-83
2022/11/21 01:22:44;;;;;;;;;;;5.80;99.90;;;;;;1974007;73;20144;-83
2022/11/21 01:25:13;;;;;;;;;;;5.80;99.90;;;;;;1973997;73;20144;-83
2022/11/21 01:27:39;;;;;;;;;;;5.70;99.90;;;;;;1973865;72;20134;-83
2022/11/21 01:30:06;;;;;;;;;;;5.70;99.90;;;;;;1973922;73;20235;-83
2022/11/21 01:32:33;;;;;;;;;;;5.70;99.90;;;;;;1974025;73;20117;-83
2022/11/21 01:35:00;;;;;;;;;;;5.70;99.90;;;;;;1974040;73;20326;-85
2022/11/21 01:37:26;;;;;;;;;;;5.70;99.90;;;;;;1974016;73;20106;-83
2022/11/21 01:39:54;;;;;;;;;;;5.80;99.90;;;;;;1974029;73;20397;-84
2022/11/21 01:42:22;;;;;;;;;;;5.80;99.90;;;;;;1973926;73;20102;-85
2022/11/21 01:44:49;;;;;;;;;;;5.70;99.90;;;;;;1974034;73;20113;-83
2022/11/21 01:47:17;;;;;;;;;;;5.70;99.90;;;;;;1973940;73;20099;-83
2022/11/21 01:49:44;;;;;;;;;;;5.70;99.90;;;;;;1973899;73;20314;-85
2022/11/21 01:52:12;;;;;;;;;;;5.70;99.90;;;;;;1973495;73;20330;-84
2022/11/21 01:54:43;;;;;;;;;;;5.80;99.90;;;;;;1973869;73;20118;-86
2022/11/21 01:57:11;;;;;;;;;;;5.80;99.90;;;;;;1974012;73;20128;-84
2022/11/21 01:59:39;;;;;;;;;;;5.90;99.90;;;;;;1972911;73;20333;-83
2022/11/21 02:02:06;;;;;;;;;;;5.80;99.90;;;;;;1973805;73;20094;-83
2022/11/21 02:04:33;;;;;;;;;;;5.80;99.90;;;;;;1974505;73;20123;-79
2022/11/21 02:07:01;;;;;;;;;;;5.80;99.90;;;;;;1975227;73;20123;-86
2022/11/21 02:09:28;;;;;;;;;;;5.70;99.90;;;;;;1975011;73;20114;-85
2022/11/21 02:11:55;;;;;;;;;;;5.70;99.90;;;;;;1974783;73;20183;-86
2022/11/21 02:14:22;;;;;;;;;;;5.80;99.90;;;;;;1974101;73;20154;-85
2022/11/21 02:16:51;;;;;;;;;;;5.70;99.90;;;;;;1974167;73;20137;-84
2022/11/21 02:19:25;;;;;;;;;;;5.70;99.90;;;;;;1973976;73;20321;-84
2022/11/21 02:21:56;;;;;;;;;;;5.70;99.90;;;;;;1973856;73;20412;-85
2022/11/21 02:24:31;;;;;;;;;;;5.80;99.90;;;;;;1973991;73;20164;-85
2022/11/21 02:26:57;;;;;;;;;;;5.80;99.90;;;;;;1973965;73;20114;-86
2022/11/21 02:29:24;;;;;;;;;;;5.80;99.90;;;;;;1973893;73;20131;-84
2022/11/21 02:31:52;;;;;;;;;;;5.90;99.90;;;;;;1974030;73;20152;-82
2022/11/21 02:34:19;;;;;;;;;;;5.90;99.90;;;;;;1974015;73;20099;-84
2022/11/21 02:36:46;;;;;;;;;;;5.80;99.90;;;;;;1973953;73;20173;-84
2022/11/21 02:39:15;;;;;;;;;;;5.80;99.90;;;;;;1973920;73;20309;-84
2022/11/21 02:41:43;;;;;;;;;;;5.80;99.90;;;;;;1973897;73;20103;-85
2022/11/21 02:44:14;;;;;;;;;;;5.70;99.90;;;;;;1973999;73;20106;-83
2022/11/21 02:46:48;;;;;;;;;;;5.80;99.90;;;;;;1973792;73;20122;-84
2022/11/21 02:49:14;;;;;;;;;;;5.80;99.90;;;;;;1973936;73;20127;-85
2022/11/21 02:51:41;;;;;;;;;;;5.70;99.90;;;;;;1974001;73;20144;-84
2022/11/21 02:54:08;;;;;;;;;;;5.70;99.90;;;;;;1973949;73;20164;-84
2022/11/21 02:56:34;;;;;;;;;;;5.70;99.90;;;;;;1973961;73;20160;-83
2022/11/21 02:59:01;;;;;;;;;;;5.70;99.90;;;;;;1973896;73;20139;-84
2022/11/21 03:01:28;;;;;;;;;;;5.70;99.90;;;;;;1974084;73;20106;-83
2022/11/21 03:03:54;;;;;;;;;;;5.70;99.90;;;;;;1974004;73;20110;-83
2022/11/21 03:06:21;;;;;;;;;;;5.80;99.90;;;;;;1973891;73;20139;-83
2022/11/21 03:08:48;;;;;;;;;;;5.70;99.90;;;;;;1973877;73;20144;-83
2022/11/21 03:11:14;;;;;;;;;;;5.70;99.90;;;;;;1974002;73;20131;-83
2022/11/21 03:13:41;;;;;;;;;;;5.70;99.90;;;;;;1974034;73;20140;-84
2022/11/21 03:16:08;;;;;;;;;;;5.70;99.90;;;;;;1973974;73;20203;-83
2022/11/21 03:18:34;;;;;;;;;;;5.70;99.90;;;;;;1973998;73;20191;-83
2022/11/21 03:21:01;;;;;;;;;;;5.70;99.90;;;;;;1974067;73;20110;-83
2022/11/21 03:23:28;;;;;;;;;;;5.80;99.90;;;;;;1974064;73;20110;-83
2022/11/21 03:25:55;;;;;;;;;;;5.60;99.90;;;;;;1973934;73;20380;-82
2022/11/21 03:28:21;;;;;;;;;;;5.60;99.90;;;;;;1973982;73;20110;-84
2022/11/21 03:30:48;;;;;;;;;;;5.50;99.90;;;;;;1973960;73;20340;-83
2022/11/21 03:33:15;;;;;;;;;;;5.60;99.90;;;;;;1973986;73;20152;-85
2022/11/21 03:35:41;;;;;;;;;;;5.60;99.90;;;;;;1974707;73;20172;-85
2022/11/21 03:38:08;;;;;;;;;;;5.50;99.90;;;;;;1974106;73;20136;-85
2022/11/21 03:40:35;;;;;;;;;;;5.50;99.90;;;;;;1974035;73;20314;-82
2022/11/21 03:43:05;;;;;;;;;;;5.40;99.90;;;;;;1974091;73;20114;-83
2022/11/21 03:45:31;;;;;;;;;;;5.40;99.90;;;;;;1974072;73;20136;-85
2022/11/21 03:47:58;;;;;;;;;;;5.40;99.90;;;;;;1974357;73;20365;-83
2022/11/21 03:50:25;;;;;;;;;;;5.40;99.90;;;;;;1974431;73;20234;-84
2022/11/21 03:52:51;;;;;;;;;;;5.60;99.90;;;;;;1974716;73;20331;-84
2022/11/21 03:55:18;;;;;;;;;;;5.60;99.90;;;;;;1975148;73;20114;-83
2022/11/21 03:57:45;;;;;;;;;;;5.70;99.90;;;;;;1974362;73;20396;-84
2022/11/21 04:00:12;;;;;;;;;;;5.70;99.90;;;;;;1974262;73;20140;-84
2022/11/21 04:02:39;;;;;;;;;;;5.70;99.90;;;;;;1973998;73;20127;-84
2022/11/21 04:05:06;;;;;;;;;;;5.70;99.90;;;;;;1974033;73;20131;-84
2022/11/21 04:07:32;;;;;;;;;;;5.70;99.90;;;;;;1974008;73;20203;-84
2022/11/21 04:09:59;;;;;;;;;;;5.50;99.90;;;;;;1974005;73;20350;-83
2022/11/21 04:12:26;;;;;;;;;;;5.50;99.90;;;;;;1974051;73;20125;-83
2022/11/21 04:14:52;;;;;;;;;;;5.60;99.90;;;;;;1974345;73;20199;-84
2022/11/21 04:17:19;;;;;;;;;;;5.60;99.90;;;;;;1974334;73;20127;-83
2022/11/21 04:19:46;;;;;;;;;;;5.60;99.90;;;;;;1974312;73;20110;-83
2022/11/21 04:22:13;;;;;;;;;;;5.60;99.90;;;;;;1974248;73;20193;-85
2022/11/21 04:24:40;;;;;;;;;;;5.70;99.90;;;;;;1974154;73;20145;-82
2022/11/21 04:27:06;;;;;;;;;;;5.80;99.90;;;;;;1974276;73;20152;-83
2022/11/21 04:29:33;;;;;;;;;;;5.80;99.90;;;;;;1974798;73;20165;-84
2022/11/21 04:32:00;;;;;;;;;;;5.80;99.90;;;;;;1974675;73;20145;-84
2022/11/21 04:34:26;;;;;;;;;;;5.80;99.90;;;;;;1974408;73;20114;-84
2022/11/21 04:36:53;;;;;;;;;;;5.70;99.90;;;;;;1974288;73;20157;-85
2022/11/21 04:39:20;;;;;;;;;;;5.70;99.90;;;;;;1974191;73;20114;-84
2022/11/21 04:41:46;;;;;;;;;;;5.60;99.90;;;;;;1973886;73;20197;-84
2022/11/21 04:44:13;;;;;;;;;;;5.70;99.90;;;;;;1974148;73;20153;-84
2022/11/21 04:46:40;;;;;;;;;;;5.70;99.90;;;;;;1974171;73;20177;-86
2022/11/21 04:49:08;;;;;;;;;;;5.70;99.90;;;;;;1974062;73;20123;-87
2022/11/21 04:51:34;;;;;;;;;;;5.60;99.90;;;;;;1973971;73;20095;-86
2022/11/21 04:54:01;;;;;;;;;;;5.60;99.90;;;;;;1973901;73;20103;-84
2022/11/21 04:56:28;;;;;;;;;;;5.70;99.90;;;;;;1974035;73;20145;-83
2022/11/21 04:58:55;;;;;;;;;;;5.60;99.90;;;;;;1973932;73;20118;-84
2022/11/21 05:01:21;;;;;;;;;;;5.70;99.90;;;;;;1976597;73;20119;-80
2022/11/21 05:03:48;;;;;;;;;;;5.50;99.90;;;;;;1975954;73;20185;-85
2022/11/21 05:06:15;;;;;;;;;;;5.60;99.90;;;;;;1974091;73;20346;-84
2022/11/21 05:08:41;;;;;;;;;;;5.50;99.90;;;;;;1974168;73;20151;-86
2022/11/21 05:13:54;;;;;;;;;;;5.50;99.90;;;;;;1974294;73;20190;-86
2022/11/21 05:16:21;;;;;;;;;;;5.50;99.90;;;;;;1974191;73;20098;-87
2022/11/21 05:18:48;;;;;;;;;;;5.50;99.90;;;;;;1974545;73;20106;-85
2022/11/21 05:21:15;;;;;;;;;;;5.40;99.90;;;;;;1974406;73;20357;-85
2022/11/21 05:23:42;;;;;;;;;;;5.30;99.90;;;;;;1974363;73;20114;-84
2022/11/21 05:26:08;;;;;;;;;;;5.30;99.90;;;;;;1974230;73;20342;-85
2022/11/21 05:28:37;;;;;;;;;;;5.20;99.90;;;;;;1974402;73;20135;-86
2022/11/21 05:31:03;;;;;;;;;;;5.10;99.90;;;;;;1974407;73;20151;-85
2022/11/21 05:33:30;;;;;;;;;;;5.10;99.90;;;;;;1974281;73;20363;-86
2022/11/21 05:35:57;;;;;;;;;;;5.20;99.90;;;;;;1974283;73;20149;-84
2022/11/21 05:38:23;;;;;;;;;;;5.10;99.90;;;;;;1974366;73;20118;-85
2022/11/21 05:40:53;;;;;;;;;;;5.10;99.90;;;;;;1974200;73;20168;-85
2022/11/21 05:46:05;;;;;;;;;;;5.00;99.90;;;;;;1974063;73;20329;-85
2022/11/21 05:48:33;;;;;;;;;;;5.00;99.90;;;;;;1974449;73;20310;-86
2022/11/21 05:50:59;;;;;;;;;;;4.90;99.90;;;;;;1974042;73;20388;-85
2022/11/21 05:53:26;;;;;;;;;;;4.90;99.90;;;;;;1974146;73;20106;-84
2022/11/21 05:55:53;;;;;;;;;;;4.90;99.90;;;;;;1974196;73;20468;-85
2022/11/21 05:58:19;;;;;;;;;;;4.90;99.90;;;;;;1974021;73;20127;-83
2022/11/21 06:00:46;;;;;;;;;;;5.00;99.90;;;;;;1974056;73;20099;-85
2022/11/21 06:03:29;;;;;;;;;;;5.00;99.90;;;;;;1974095;73;20174;-80
2022/11/21 06:06:06;;;;;;;;;;;5.00;99.90;;;;;;1973994;73;20172;-82
2022/11/21 06:08:45;;;;;;;;;;;5.00;99.90;;;;;;1974097;73;20167;-80
2022/11/21 06:11:13;;;;;;;;;;;5.00;99.90;;;;;;1974073;73;20126;-85
2022/11/21 06:13:39;;;;;;;;;;;5.00;99.90;;;;;;1974036;73;20217;-85
2022/11/21 06:16:08;;;;;;;;;;;5.10;99.90;;;;;;1973991;73;20114;-82
2022/11/21 06:18:36;;;;;;;;;;;5.10;99.90;;;;;;1973131;73;20126;-86
2022/11/21 06:21:08;;;;;;;;;;;5.10;99.90;;;;;;1973739;73;20359;-83
2022/11/21 06:23:35;;;;;;;;;;;5.20;99.90;;;;;;1971049;73;20136;-84
2022/11/21 06:26:03;;;;;;;;;;;5.20;99.90;;;;;;1974207;73;20171;-77
2022/11/21 06:28:32;;;;;;;;;;;5.20;99.90;;;;;;1973902;73;20110;-74
2022/11/21 06:31:05;;;;;;;;;;;5.40;99.90;;;;;;1973887;73;20171;-75
2022/11/21 06:33:32;;;;;;;;;;;5.50;99.90;;;;;;1973921;73;20103;-74
2022/11/21 06:36:00;;;;;;;;;;;5.50;99.90;;;;;;1973758;73;20110;-73
2022/11/21 06:38:27;;;;;;;;;;;5.50;99.90;;;;;;1973466;73;20101;-74
2022/11/21 06:40:53;;;;;;;;;;;5.50;99.90;;;;;;1973918;73;20158;-75
2022/11/21 06:43:20;;;;;;;;;;;5.40;99.90;;;;;;1973886;73;20141;-73
2022/11/21 06:45:47;;;;;;;;;;;5.40;99.90;;;;;;1973785;73;20122;-74
2022/11/21 06:48:14;;;;;;;;;;;5.40;99.90;;;;;;1973974;73;20111;-75
2022/11/21 06:50:40;;;;;;;;;;;5.30;99.90;;;;;;1974048;73;20118;-74
2022/11/21 06:53:07;;;;;;;;;;;5.40;99.90;;;;;;1974147;73;20126;-74
2022/11/21 06:55:34;;;;;;;;;;;5.40;99.90;;;;;;1973787;73;20148;-74
2022/11/21 06:58:00;;;;;;;;;;;5.30;99.90;;;;;;1973627;73;20114;-75
2022/11/21 07:00:27;;;;;;;;;;;5.30;99.90;;;;;;1973737;73;20114;-76
2022/11/21 07:02:54;;;;;;;;;;;5.30;99.90;;;;;;1973936;73;20114;-75
2022/11/21 07:05:21;;;;;;;;;;;5.30;99.90;;;;;;1973997;73;20159;-75
2022/11/21 07:07:47;;;;;;;;;;;5.30;99.90;;;;;;1974139;73;20146;-74
2022/11/21 07:10:14;;;;;;;;;;;5.30;99.90;;;;;;1974233;73;20362;-73
2022/11/21 07:15:25;;;;;;;;;;;5.10;99.90;;;;;;1974061;73;20145;-75
2022/11/21 07:17:52;;;;;;;;;;;5.20;99.90;;;;;;1973961;73;20141;-74
2022/11/21 07:20:19;;;;;;;;;;;5.40;99.90;;;;;;1974002;73;20133;-74
2022/11/21 07:22:45;;;;;;;;;;;5.30;99.90;;;;;;1973922;73;20142;-75
2022/11/21 07:25:12;;;;;;;;;;;5.30;99.90;;;;;;1974034;73;20114;-75
2022/11/21 07:27:39;;;;;;;;;;;5.30;99.90;;;;;;1974003;73;20200;-74
2022/11/21 07:30:06;;;;;;;;;;;5.20;99.90;;;;;;1974053;73;20106;-74
2022/11/21 07:32:33;;;;;;;;;;;5.10;99.90;;;;;;1974000;73;20220;-75
2022/11/21 07:35:00;;;;;;;;;;;5.00;99.90;;;;;;1974082;73;20326;-76
2022/11/21 07:37:26;;;;;;;;;;;5.00;99.90;;;;;;1974050;73;20103;-74
2022/11/21 07:39:53;;;;;;;;;;;5.10;99.90;;;;;;1973957;73;20373;-75
2022/11/21 07:42:20;;;;;;;;;;;5.10;99.90;;;;;;1973984;73;20099;-75
2022/11/21 07:44:46;;;;;;;;;;;5.20;99.90;;;;;;1974057;73;20310;-75
2022/11/21 07:47:13;;;;;;;;;;;5.30;99.90;;;;;;1973966;73;20183;-75
2022/11/21 07:49:40;;;;;;;;;;;5.40;99.90;;;;;;1974061;73;20169;-76
2022/11/21 07:52:07;;;;;;;;;;;5.50;99.90;;;;;;1973949;73;20345;-75
2022/11/21 07:54:33;;;;;;;;;;;5.60;99.90;;;;;;1974176;73;20155;-75
2022/11/21 07:57:00;;;;;;;;;;;5.60;99.90;;;;;;1974308;73;20329;-75
2022/11/21 07:59:27;;;;;;;;;;;5.60;99.90;;;;;;1974085;73;20110;-75
2022/11/21 08:01:53;;;;;;;;;;;5.60;99.90;;;;;;1974291;73;20368;-74
2022/11/21 08:04:20;;;;;;;;;;;5.50;99.90;;;;;;1974455;73;20109;-74
2022/11/21 08:06:47;;;;;;;;;;;5.60;99.90;;;;;;1974225;73;20396;-73
2022/11/21 08:09:14;;;;;;;;;;;5.60;99.90;;;;;;1974202;73;20216;-75
2022/11/21 08:11:40;;;;;;;;;;;5.60;99.90;;;;;;1974342;73;20325;-74
2022/11/21 08:14:07;;;;;;;;;;;5.60;99.90;;;;;;1974282;73;20122;-74
2022/11/21 08:16:34;;;;;;;;;;;5.60;99.90;;;;;;1974174;73;20173;-74
2022/11/21 08:19:00;;;;;;;;;;;5.70;99.90;;;;;;1974227;73;20153;-74
2022/11/21 08:21:27;;;;;;;;;;;5.70;99.90;;;;;;1974116;73;20355;-73
2022/11/21 08:23:54;;;;;;;;;;;5.70;99.90;;;;;;1974291;73;20110;-73
2022/11/21 08:26:21;;;;;;;;;;;5.80;99.90;;;;;;1974233;73;20102;-73
2022/11/21 08:28:47;;;;;;;;;;;6.10;99.90;;;;;;1974126;73;20111;-74
2022/11/21 08:31:14;;;;;;;;;;;6.20;99.90;;;;;;1973892;73;20184;-73
2022/11/21 08:33:41;;;;;;;;;;;6.30;99.90;;;;;;1973879;73;20310;-75
2022/11/21 08:36:08;;;;;;;;;;;6.90;99.90;;;;;;1973960;73;20114;-74
2022/11/21 08:38:34;;;;;;;;;;;7.40;99.90;;;;;;1973970;73;20102;-75
2022/11/21 08:43:46;;;;;;;;;;;7.90;99.90;;;;;;1974084;73;20118;-75
2022/11/21 08:46:13;;;;;;;;;;;7.80;99.90;;;;;;1973825;73;20145;-74
2022/11/21 08:48:39;;;;;;;;;;;7.50;99.90;;;;;;1974027;73;20110;-74
2022/11/21 08:51:06;;;;;;;;;;;7.80;99.90;;;;;;1974124;73;20111;-75
2022/11/21 08:53:33;;;;;;;;;;;7.80;99.90;;;;;;1973957;73;20176;-74
2022/11/21 08:56:00;;;;;;;;;;;7.70;99.90;;;;;;1973876;73;20118;-75
2022/11/21 08:58:26;;;;;;;;;;;7.40;99.90;;;;;;1973874;73;20114;-74
2022/11/21 09:00:53;;;;;;;;;;;7.40;99.90;;;;;;1973955;73;20161;-75
2022/11/21 09:03:20;;;;;;;;;;;7.90;99.90;;;;;;1973992;73;20114;-74
2022/11/21 09:05:46;;;;;;;;;;;8.10;99.90;;;;;;1973863;73;20148;-75
2022/11/21 09:08:13;;;;;;;;;;;8.00;99.90;;;;;;1973908;73;20184;-75
2022/11/21 09:10:40;;;;;;;;;;;8.30;99.90;;;;;;1974117;73;20110;-73
2022/11/21 09:13:06;;;;;;;;;;;8.40;99.90;;;;;;1974110;73;20147;-75
2022/11/21 09:18:18;;;;;;;;;;;8.90;99.90;;;;;;1974014;73;20123;-73
2022/11/21 09:20:45;;;;;;;;;;;8.70;99.90;;;;;;1974044;73;20140;-73
2022/11/21 09:23:12;;;;;;;;;;;8.60;99.90;;;;;;1974001;73;20194;-73
2022/11/21 09:25:38;;;;;;;;;;;8.70;99.90;;;;;;1973882;73;20123;-74
2022/11/21 09:28:06;;;;;;;;;;;8.80;99.90;;;;;;1973961;73;20099;-74
2022/11/21 09:30:33;;;;;;;;;;;8.70;99.90;;;;;;1974183;73;20106;-73
2022/11/21 09:33:04;;;;;;;;;;;8.60;99.90;;;;;;1974467;73;20114;-76
2022/11/21 09:35:31;;;;;;;;;;;8.60;99.90;;;;;;1974234;73;20138;-73
2022/11/21 09:37:58;;;;;;;;;;;8.50;99.90;;;;;;1974495;73;20110;-73
2022/11/21 09:40:25;;;;;;;;;;;8.80;99.90;;;;;;1974183;73;20095;-73
2022/11/21 09:42:56;;;;;;;;;;;9.00;99.90;;;;;;1974234;73;20140;-74
2022/11/21 09:45:24;;;;;;;;;;;8.90;99.90;;;;;;1974342;73;20369;-75
2022/11/21 09:47:51;;;;;;;;;;;8.90;99.90;;;;;;1973977;73;20118;-75
2022/11/21 09:50:25;;;;;;;;;;;9.10;99.90;;;;;;1974317;73;20110;-74
2022/11/21 09:53:00;;;;;;;;;;;8.90;99.90;;;;;;1974357;73;20118;-74
2022/11/21 09:55:37;;;;;;;;;;;8.90;99.90;;;;;;1974349;73;20114;-75
2022/11/21 09:58:04;;;;;;;;;;;8.70;99.90;;;;;;1974113;73;20190;-73
2022/11/21 10:00:31;;;;;;;;;;;8.60;99.90;;;;;;1974237;73;20095;-75
2022/11/21 10:02:57;;;;;;;;;;;8.60;99.90;;;;;;1974465;73;20350;-75
2022/11/21 10:05:34;;;;;;;;;;;8.70;99.90;;;;;;1947822;73;20111;-76
2022/11/21 10:08:01;;;;;;;;;;;9.10;99.90;;;;;;1974623;73;20356;-75
2022/11/21 10:10:29;;;;;;;;;;;9.70;99.90;;;;;;1974834;73;20362;-75
2022/11/21 10:13:07;;;;;;;;;;;9.70;99.90;;;;;;1972922;73;20107;-76
2022/11/21 10:15:47;;;;;;;;;;;9.90;99.90;;;;;;1973736;73;20174;-75
2022/11/21 10:18:32;;;;;;;;;;;9.90;99.90;;;;;;1974227;73;20110;-75
2022/11/21 10:21:13;;;;;;;;;;;10.30;99.90;;;;;;1974040;73;20099;-74
2022/11/21 10:23:44;;;;;;;;;;;10.30;99.90;;;;;;1973104;73;20141;-72
2022/11/21 10:26:16;;;;;;;;;;;10.50;99.90;;;;;;1973763;73;20106;-74
2022/11/21 10:28:50;;;;;;;;;;;11.10;99.90;;;;;;1973702;73;20148;-74
2022/11/21 10:31:17;;;;;;;;;;;11.40;99.90;;;;;;1973824;73;20156;-74
2022/11/21 10:33:43;;;;;;;;;;;11.50;99.90;;;;;;1973826;73;20250;-74
2022/11/21 10:36:19;;;;;;;;;;;11.30;99.90;;;;;;1974006;73;20144;-74
2022/11/21 10:38:53;;;;;;;;;;;11.50;99.90;;;;;;1973823;73;20176;-74
2022/11/21 10:41:21;;;;;;;;;;;11.20;99.90;;;;;;1974064;73;20145;-73
2022/11/21 10:46:34;;;;;;;;;;;11.00;99.90;;;;;;1974064;73;20148;-73
2022/11/21 10:49:01;;;;;;;;;;;10.60;99.90;;;;;;1973977;73;20202;-73
2022/11/21 10:51:30;;;;;;;;;;;10.40;99.90;;;;;;1974008;73;20110;-74
2022/11/21 10:56:51;;;;;;;;;;;10.00;99.90;;;;;;1896528;74;20233;-74
2022/11/21 10:59:20;;;;;;;;;;;9.90;99.90;;;;;;1896126;76;20160;-73
2022/11/21 11:01:48;;;;;;;;;;;9.90;99.90;;;;;;1923872;73;20148;-72
2022/11/21 11:04:16;;;;;;;;;;;9.90;99.90;;;;;;1972025;73;20107;-72
2022/11/21 11:06:43;;;;;;;;;;;10.10;99.90;;;;;;1974467;73;20098;-73
2022/11/21 11:09:25;;;;;;;;;;;10.10;99.90;;;;;;1974113;73;20118;-72
2022/11/21 11:11:52;;;;;;;;;;;10.50;99.90;;;;;;1973977;73;20225;-74
2022/11/21 11:14:20;;;;;;;;;;;10.60;99.90;;;;;;1974178;73;20148;-74
2022/11/21 11:16:47;;;;;;;;;;;10.90;99.90;;;;;;1972939;73;20179;-71
2022/11/21 11:19:15;;;;;;;;;;;11.30;99.90;;;;;;1974231;73;20242;-74
2022/11/21 11:21:46;;;;;;;;;;;11.20;99.90;;;;;;1974186;73;20342;-73
2022/11/21 11:24:14;;;;;;;;;;;10.80;99.90;;;;;;1974434;73;20122;-73
2022/11/21 11:26:48;;;;;;;;;;;10.70;99.90;;;;;;1974375;73;20106;-74
2022/11/21 11:29:25;;;;;;;;;;;10.50;99.90;;;;;;1974445;73;20177;-73
2022/11/21 11:32:00;;;;;;;;;;;10.50;99.90;;;;;;1974231;73;20114;-74
2022/11/21 11:34:29;;;;;;;;;;;10.50;99.90;;;;;;1974275;73;20110;-73
2022/11/21 11:36:58;;;;;;;;;;;10.50;99.90;;;;;;1974199;73;20128;-73
2022/11/21 11:39:38;;;;;;;;;;;10.70;99.90;;;;;;1973584;73;20114;-73
2022/11/21 11:48:00;;;;;;;;;;;10.30;99.90;;;;;;1974010;73;20330;-73
2022/11/21 11:50:36;;;;;;;;;;;10.70;99.90;;;;;;1974026;73;20375;-75
2022/11/21 11:53:05;;;;;;;;;;;11.60;99.90;;;;;;1973862;73;20368;-75
2022/11/21 11:55:51;;;;;;;;;;;11.40;99.90;;;;;;1973953;73;20177;-76
2022/11/21 11:58:24;;;;;;;;;;;11.30;99.90;;;;;;1973677;73;20166;-72
2022/11/21 12:00:52;;;;;;;;;;;11.10;99.90;;;;;;1973838;73;20099;-72
2022/11/21 12:03:21;;;;;;;;;;;10.60;99.90;;;;;;1973773;73;20114;-73
2022/11/21 12:05:58;;;;;;;;;;;10.30;99.90;;;;;;1973802;73;20136;-73
2022/11/21 12:08:26;;;;;;;;;;;10.40;99.90;;;;;;1973764;73;20165;-73
2022/11/21 12:13:41;;;;;;;;;;;10.70;99.90;;;;;;1973798;73;20111;-73
2022/11/21 12:16:09;;;;;;;;;;;10.40;99.90;;;;;;1973979;73;20114;-74
2022/11/21 12:18:38;;;;;;;;;;;10.60;99.90;;;;;;1973969;73;20145;-72
2022/11/21 12:21:06;;;;;;;;;;;10.70;99.90;;;;;;1973781;73;20194;-70
2022/11/21 12:23:37;;;;;;;;;;;10.50;99.90;;;;;;1974045;73;20103;-72
2022/11/21 12:26:05;;;;;;;;;;;10.30;99.90;;;;;;1974006;73;20207;-74
2022/11/21 12:28:36;;;;;;;;;;;10.50;99.90;;;;;;1973627;73;20145;-74
2022/11/21 12:31:09;;;;;;;;;;;10.90;99.90;;;;;;1974081;73;20111;-74
2022/11/21 12:33:37;;;;;;;;;;;10.50;99.90;;;;;;1973947;73;20152;-75
2022/11/21 12:36:06;;;;;;;;;;;10.20;99.90;;;;;;1973841;73;20472;-75
2022/11/21 12:38:37;;;;;;;;;;;10.10;99.90;;;;;;1973570;73;20136;-74
2022/11/21 12:44:08;;;;;;;;;;;10.00;99.90;;;;;;1974187;73;20114;-72
2022/11/21 12:46:36;;;;;;;;;;;10.10;99.90;;;;;;1973487;73;20118;-74
2022/11/21 12:54:29;;;;;;;;;;;10.30;99.90;;;;;;1973785;73;20107;-75
2022/11/21 12:55:04;;;;;;;;;;;10.50;99.90;;;;;;1969523;73;20139;-72
2022/11/21 12:57:33;;;;;;;;;;;10.60;99.90;;;;;;1973369;73;20114;-74
2022/11/21 13:00:01;;;;;;;;;;;10.50;99.90;;;;;;1972683;73;20337;-72
2022/11/21 13:02:29;;;;;;;;;;;10.80;99.90;;;;;;1973816;73;20098;-72
2022/11/21 13:04:56;;;;;;;;;;;10.80;99.90;;;;;;1973881;73;20317;-74
2022/11/21 13:07:23;;;;;;;;;;;10.90;99.90;;;;;;1973804;73;20103;-73
2022/11/21 13:09:51;;;;;;;;;;;11.00;99.90;;;;;;1973864;73;20121;-73
2022/11/21 13:12:28;;;;;;;;;;;11.10;99.90;;;;;;1973972;73;20144;-72
2022/11/21 13:15:05;;;;;;;;;;;11.60;99.90;;;;;;1973673;73;20202;-74
2022/11/21 13:17:34;;;;;;;;;;;11.50;99.90;;;;;;1973418;73;20189;-76
2022/11/21 13:20:17;;;;;;;;;;;12.20;99.90;;;;;;1973764;73;20102;-73
2022/11/21 13:22:46;;;;;;;;;;;12.80;99.90;;;;;;1973817;73;20146;-73
2022/11/21 13:25:40;;;;;;;;;;;12.20;99.90;;;;;;1973746;73;20164;-74
2022/11/21 13:28:15;;;;;;;;;;;12.00;99.90;;;;;;1972927;73;20182;-72
2022/11/21 13:30:48;;;;;;;;;;;12.00;99.90;;;;;;1974094;73;20365;-79
2022/11/21 13:33:35;;;;;;;;;;;11.80;99.90;;;;;;1974058;73;20144;-74
2022/11/21 13:36:02;;;;;;;;;;;11.30;99.90;;;;;;1973938;73;20133;-74
2022/11/21 13:38:28;;;;;;;;;;;11.60;99.90;;;;;;1973921;73;20136;-75
2022/11/21 13:43:40;;;;;;;;;;;13.10;99.90;;;;;;1973787;73;20157;-71
2022/11/21 13:46:06;;;;;;;;;;;13.00;99.90;;;;;;1973780;73;20385;-71
2022/11/21 13:48:41;;;;;;;;;;;12.00;99.90;;;;;;1973829;73;20141;-78
2022/11/21 13:51:09;;;;;;;;;;;12.20;99.90;;;;;;1973766;73;20145;-80
2022/11/21 13:53:54;;;;;;;;;;;12.70;99.90;;;;;;1973874;73;20356;-71
2022/11/21 13:56:41;;;;;;;;;;;11.80;99.90;;;;;;1973943;73;20102;-76
2022/11/21 13:59:18;;;;;;;;;;;11.90;99.90;;;;;;1973539;73;20358;-74
2022/11/21 14:01:49;;;;;;;;;;;11.40;99.90;;;;;;1973884;73;20340;-73
2022/11/21 14:04:18;;;;;;;;;;;11.50;99.90;;;;;;1973895;73;20355;-72
2022/11/21 14:06:45;;;;;;;;;;;11.40;99.90;;;;;;1973480;73;20157;-73
2022/11/21 14:09:21;;;;;;;;;;;11.60;99.90;;;;;;1973845;73;20111;-73
2022/11/21 14:12:01;;;;;;;;;;;11.70;99.90;;;;;;1973839;73;20095;-73
2022/11/21 14:14:38;;;;;;;;;;;11.60;99.90;;;;;;1973228;73;20117;-75
2022/11/21 14:17:15;;;;;;;;;;;11.20;99.90;;;;;;1973989;73;20187;-73
2022/11/21 14:19:42;;;;;;;;;;;10.90;99.90;;;;;;1973491;73;20110;-75
2022/11/21 14:22:16;;;;;;;;;;;10.80;99.90;;;;;;1973950;73;20325;-71
2022/11/21 14:24:43;;;;;;;;;;;10.80;99.90;;;;;;1971976;73;20179;-72
2022/11/21 14:27:12;;;;;;;;;;;10.50;99.90;;;;;;1973937;73;20110;-73
2022/11/21 14:29:39;;;;;;;;;;;10.50;99.90;;;;;;1973848;73;20229;-72
2022/11/21 14:32:06;;;;;;;;;;;10.40;99.90;;;;;;1973871;73;20114;-73
2022/11/21 14:34:33;;;;;;;;;;;10.40;99.90;;;;;;1973874;73;20140;-73
2022/11/21 14:37:00;;;;;;;;;;;10.10;99.90;;;;;;1974027;73;20140;-74
2022/11/21 14:39:27;;;;;;;;;;;9.90;99.90;;;;;;1974026;73;20344;-72
2022/11/21 14:41:55;;;;;;;;;;;9.80;99.90;;;;;;1973994;73;20376;-73
2022/11/21 14:44:22;;;;;;;;;;;9.70;99.90;;;;;;1973901;73;20121;-73
2022/11/21 14:46:49;;;;;;;;;;;9.70;99.90;;;;;;1974222;73;20106;-72
2022/11/21 14:49:18;;;;;;;;;;;9.50;99.90;;;;;;1974327;73;20400;-74
2022/11/21 14:51:55;;;;;;;;;;;9.60;99.90;;;;;;1973984;73;20196;-73
2022/11/21 14:54:22;;;;;;;;;;;9.60;99.90;;;;;;1973470;73;20205;-73
2022/11/21 14:56:50;;;;;;;;;;;9.70;99.90;;;;;;1973989;73;20095;-73
2022/11/21 14:59:24;;;;;;;;;;;9.60;99.90;;;;;;1973234;73;20337;-74
2022/11/21 15:01:55;;;;;;;;;;;9.60;99.90;;;;;;1973798;73;20357;-74
2022/11/21 15:04:32;;;;;;;;;;;9.60;99.90;;;;;;1970125;73;20318;-74
2022/11/21 15:06:59;;;;;;;;;;;9.60;99.90;;;;;;1974026;73;20094;-74
2022/11/21 15:09:25;;;;;;;;;;;9.60;99.90;;;;;;1974057;73;20294;-73
2022/11/21 15:11:54;;;;;;;;;;;9.40;99.90;;;;;;1973961;73;20098;-74